sensor_id;sensor_type;location;lat;lon;timestamp;P1;durP1;ratioP1;P2;durP2;ratioP2
73170;SDS011;61381;50.118;19.962;2022-09-09T00:01:23;21.40;;;12.00;;
73170;SDS011;61381;50.118;19.962;2022-09-09T00:06:30;26.58;;;13.38;;
73170;SDS011;61381;50.118;19.962;2022-09-09T00:11:36;24.90;;;13.02;;
73170;SDS011;61381;50.118;19.962;2022-09-09T00:16:41;23.55;;;12.68;;
73170;SDS011;61381;50.118;19.962;2022-09-09T00:21:51;22.52;;;11.73;;
73170;SDS011;61381;50.118;19.962;2022-09-09T00:27:00;21.73;;;11.82;;
73170;SDS011;61381;50.118;19.962;2022-09-09T00:32:11;19.95;;;10.95;;
73170;SDS011;61381;50.118;19.962;2022-09-09T00:37:14;19.35;;;11.10;;
73170;SDS011;61381;50.118;19.962;2022-09-09T00:42:16;22.90;;;11.90;;
73170;SDS011;61381;50.118;19.962;2022-09-09T00:47:34;21.55;;;11.68;;
73170;SDS011;61381;50.118;19.962;2022-09-09T00:52:44;20.27;;;11.50;;
73170;SDS011;61381;50.118;19.962;2022-09-09T00:57:56;21.10;;;10.80;;
73170;SDS011;61381;50.118;19.962;2022-09-09T01:03:02;21.83;;;11.98;;
73170;SDS011;61381;50.118;19.962;2022-09-09T01:08:17;24.08;;;11.93;;
73170;SDS011;61381;50.118;19.962;2022-09-09T01:13:34;23.70;;;12.55;;
73170;SDS011;61381;50.118;19.962;2022-09-09T01:18:39;22.60;;;11.85;;
73170;SDS011;61381;50.118;19.962;2022-09-09T01:23:48;24.33;;;12.60;;
73170;SDS011;61381;50.118;19.962;2022-09-09T01:29:07;25.02;;;12.90;;
73170;SDS011;61381;50.118;19.962;2022-09-09T01:34:10;24.70;;;13.13;;
73170;SDS011;61381;50.118;19.962;2022-09-09T01:39:12;21.75;;;11.10;;
73170;SDS011;61381;50.118;19.962;2022-09-09T01:44:15;26.55;;;13.27;;
73170;SDS011;61381;50.118;19.962;2022-09-09T01:49:16;24.88;;;12.90;;
73170;SDS011;61381;50.118;19.962;2022-09-09T01:54:18;27.50;;;13.80;;
73170;SDS011;61381;50.118;19.962;2022-09-09T01:59:35;28.58;;;14.13;;
73170;SDS011;61381;50.118;19.962;2022-09-09T02:04:48;28.85;;;13.80;;
73170;SDS011;61381;50.118;19.962;2022-09-09T02:09:51;26.48;;;12.90;;
73170;SDS011;61381;50.118;19.962;2022-09-09T02:15:02;31.42;;;14.32;;
73170;SDS011;61381;50.118;19.962;2022-09-09T02:20:08;26.45;;;12.05;;
73170;SDS011;61381;50.118;19.962;2022-09-09T02:25:14;25.90;;;13.48;;
73170;SDS011;61381;50.118;19.962;2022-09-09T02:30:19;29.75;;;14.45;;
73170;SDS011;61381;50.118;19.962;2022-09-09T02:35:21;29.13;;;14.57;;
73170;SDS011;61381;50.118;19.962;2022-09-09T02:40:25;26.75;;;13.77;;
73170;SDS011;61381;50.118;19.962;2022-09-09T02:45:28;31.23;;;14.10;;
73170;SDS011;61381;50.118;19.962;2022-09-09T02:50:34;31.23;;;14.75;;
73170;SDS011;61381;50.118;19.962;2022-09-09T02:55:38;28.48;;;13.75;;
73170;SDS011;61381;50.118;19.962;2022-09-09T03:00:41;30.35;;;14.02;;
73170;SDS011;61381;50.118;19.962;2022-09-09T03:05:43;28.45;;;13.65;;
73170;SDS011;61381;50.118;19.962;2022-09-09T03:10:44;33.60;;;15.38;;
73170;SDS011;61381;50.118;19.962;2022-09-09T03:15:47;33.50;;;14.88;;
73170;SDS011;61381;50.118;19.962;2022-09-09T03:20:48;34.85;;;14.40;;
73170;SDS011;61381;50.118;19.962;2022-09-09T03:25:49;32.25;;;15.10;;
73170;SDS011;61381;50.118;19.962;2022-09-09T03:30:51;37.20;;;15.25;;
73170;SDS011;61381;50.118;19.962;2022-09-09T03:35:52;47.83;;;18.05;;
73170;SDS011;61381;50.118;19.962;2022-09-09T03:40:53;39.08;;;16.63;;
73170;SDS011;61381;50.118;19.962;2022-09-09T03:45:56;42.40;;;15.90;;
73170;SDS011;61381;50.118;19.962;2022-09-09T03:50:57;46.85;;;17.73;;
73170;SDS011;61381;50.118;19.962;2022-09-09T03:55:58;44.05;;;18.15;;
73170;SDS011;61381;50.118;19.962;2022-09-09T04:01:01;51.70;;;16.45;;
73170;SDS011;61381;50.118;19.962;2022-09-09T04:06:03;41.63;;;16.40;;
73170;SDS011;61381;50.118;19.962;2022-09-09T04:11:05;32.95;;;15.07;;
73170;SDS011;61381;50.118;19.962;2022-09-09T04:16:09;40.42;;;16.67;;
73170;SDS011;61381;50.118;19.962;2022-09-09T04:21:11;35.38;;;15.38;;
73170;SDS011;61381;50.118;19.962;2022-09-09T04:26:12;35.00;;;15.70;;
73170;SDS011;61381;50.118;19.962;2022-09-09T04:31:15;42.42;;;16.35;;
73170;SDS011;61381;50.118;19.962;2022-09-09T04:36:17;37.28;;;15.75;;
73170;SDS011;61381;50.118;19.962;2022-09-09T04:41:18;40.63;;;17.20;;
73170;SDS011;61381;50.118;19.962;2022-09-09T04:46:20;34.00;;;14.73;;
73170;SDS011;61381;50.118;19.962;2022-09-09T04:51:22;29.92;;;14.30;;
73170;SDS011;61381;50.118;19.962;2022-09-09T04:56:22;37.40;;;16.15;;
73170;SDS011;61381;50.118;19.962;2022-09-09T05:01:25;39.95;;;16.08;;
73170;SDS011;61381;50.118;19.962;2022-09-09T05:06:26;32.78;;;14.55;;
73170;SDS011;61381;50.118;19.962;2022-09-09T05:11:27;24.63;;;12.95;;
73170;SDS011;61381;50.118;19.962;2022-09-09T05:16:30;24.58;;;11.88;;
73170;SDS011;61381;50.118;19.962;2022-09-09T05:21:31;17.65;;;10.52;;
73170;SDS011;61381;50.118;19.962;2022-09-09T05:26:32;16.33;;;10.40;;
73170;SDS011;61381;50.118;19.962;2022-09-09T05:31:34;21.30;;;10.52;;
73170;SDS011;61381;50.118;19.962;2022-09-09T05:36:35;18.08;;;9.23;;
73170;SDS011;61381;50.118;19.962;2022-09-09T05:41:35;20.42;;;10.45;;
73170;SDS011;61381;50.118;19.962;2022-09-09T05:46:38;24.75;;;11.82;;
73170;SDS011;61381;50.118;19.962;2022-09-09T05:51:39;21.50;;;10.88;;
73170;SDS011;61381;50.118;19.962;2022-09-09T05:56:39;24.33;;;12.93;;
73170;SDS011;61381;50.118;19.962;2022-09-09T06:01:42;24.52;;;13.30;;
73170;SDS011;61381;50.118;19.962;2022-09-09T06:06:42;27.27;;;12.88;;
73170;SDS011;61381;50.118;19.962;2022-09-09T06:11:44;34.20;;;14.55;;
73170;SDS011;61381;50.118;19.962;2022-09-09T06:16:46;26.60;;;13.88;;
73170;SDS011;61381;50.118;19.962;2022-09-09T06:21:47;28.38;;;14.25;;
73170;SDS011;61381;50.118;19.962;2022-09-09T06:26:48;27.15;;;14.00;;
73170;SDS011;61381;50.118;19.962;2022-09-09T06:31:50;29.27;;;14.80;;
73170;SDS011;61381;50.118;19.962;2022-09-09T06:36:51;31.10;;;15.43;;
73170;SDS011;61381;50.118;19.962;2022-09-09T06:41:52;28.98;;;13.07;;
73170;SDS011;61381;50.118;19.962;2022-09-09T06:46:54;27.52;;;13.18;;
73170;SDS011;61381;50.118;19.962;2022-09-09T06:51:55;24.20;;;12.30;;
73170;SDS011;61381;50.118;19.962;2022-09-09T06:56:56;24.80;;;13.10;;
73170;SDS011;61381;50.118;19.962;2022-09-09T07:01:58;20.90;;;11.35;;
73170;SDS011;61381;50.118;19.962;2022-09-09T07:06:59;20.25;;;10.63;;
73170;SDS011;61381;50.118;19.962;2022-09-09T07:11:59;23.17;;;12.00;;
73170;SDS011;61381;50.118;19.962;2022-09-09T07:17:02;23.48;;;11.85;;
73170;SDS011;61381;50.118;19.962;2022-09-09T07:22:03;21.88;;;11.82;;
73170;SDS011;61381;50.118;19.962;2022-09-09T07:27:04;22.23;;;11.82;;
73170;SDS011;61381;50.118;19.962;2022-09-09T07:32:06;24.60;;;12.68;;
73170;SDS011;61381;50.118;19.962;2022-09-09T07:37:07;25.23;;;13.07;;
73170;SDS011;61381;50.118;19.962;2022-09-09T07:42:08;20.90;;;10.77;;
73170;SDS011;61381;50.118;19.962;2022-09-09T07:47:10;19.35;;;11.10;;
73170;SDS011;61381;50.118;19.962;2022-09-09T07:52:11;19.85;;;11.18;;
73170;SDS011;61381;50.118;19.962;2022-09-09T07:57:12;14.80;;;8.20;;
73170;SDS011;61381;50.118;19.962;2022-09-09T08:02:14;17.25;;;8.43;;
73170;SDS011;61381;50.118;19.962;2022-09-09T08:07:15;13.23;;;6.90;;
73170;SDS011;61381;50.118;19.962;2022-09-09T08:12:16;9.80;;;6.18;;
73170;SDS011;61381;50.118;19.962;2022-09-09T08:17:18;11.48;;;6.93;;
73170;SDS011;61381;50.118;19.962;2022-09-09T08:22:19;10.55;;;6.80;;
73170;SDS011;61381;50.118;19.962;2022-09-09T08:27:20;8.95;;;5.78;;
73170;SDS011;61381;50.118;19.962;2022-09-09T08:32:22;7.45;;;4.93;;
73170;SDS011;61381;50.118;19.962;2022-09-09T08:37:23;6.95;;;4.72;;
73170;SDS011;61381;50.118;19.962;2022-09-09T08:42:31;8.50;;;5.00;;
73170;SDS011;61381;50.118;19.962;2022-09-09T08:47:42;8.07;;;4.90;;
73170;SDS011;61381;50.118;19.962;2022-09-09T08:52:55;6.40;;;4.55;;
73170;SDS011;61381;50.118;19.962;2022-09-09T08:58:04;5.47;;;3.80;;
73170;SDS011;61381;50.118;19.962;2022-09-09T09:03:13;4.75;;;3.85;;
73170;SDS011;61381;50.118;19.962;2022-09-09T09:08:25;4.43;;;3.60;;
73170;SDS011;61381;50.118;19.962;2022-09-09T09:13:33;6.03;;;4.28;;
73170;SDS011;61381;50.118;19.962;2022-09-09T09:23:39;4.68;;;3.17;;
73170;SDS011;61381;50.118;19.962;2022-09-09T09:28:45;3.88;;;3.25;;
73170;SDS011;61381;50.118;19.962;2022-09-09T09:33:48;3.25;;;2.95;;
73170;SDS011;61381;50.118;19.962;2022-09-09T09:38:53;3.88;;;2.60;;
73170;SDS011;61381;50.118;19.962;2022-09-09T09:43:55;3.70;;;2.72;;
73170;SDS011;61381;50.118;19.962;2022-09-09T09:48:58;3.50;;;2.60;;
73170;SDS011;61381;50.118;19.962;2022-09-09T09:54:06;3.58;;;2.35;;
73170;SDS011;61381;50.118;19.962;2022-09-09T09:59:32;3.13;;;2.40;;
73170;SDS011;61381;50.118;19.962;2022-09-09T10:04:35;4.65;;;2.90;;
73170;SDS011;61381;50.118;19.962;2022-09-09T10:09:36;2.85;;;2.42;;
73170;SDS011;61381;50.118;19.962;2022-09-09T10:14:38;4.32;;;2.65;;
73170;SDS011;61381;50.118;19.962;2022-09-09T10:19:50;2.88;;;2.40;;
73170;SDS011;61381;50.118;19.962;2022-09-09T10:25:11;3.08;;;2.20;;
73170;SDS011;61381;50.118;19.962;2022-09-09T10:30:30;4.80;;;2.30;;
73170;SDS011;61381;50.118;19.962;2022-09-09T10:35:37;3.40;;;1.85;;
73170;SDS011;61381;50.118;19.962;2022-09-09T10:41:00;2.20;;;1.90;;
73170;SDS011;61381;50.118;19.962;2022-09-09T10:46:16;4.50;;;1.80;;
73170;SDS011;61381;50.118;19.962;2022-09-09T10:51:26;2.95;;;2.47;;
73170;SDS011;61381;50.118;19.962;2022-09-09T10:56:33;4.07;;;1.88;;
73170;SDS011;61381;50.118;19.962;2022-09-09T11:06:44;2.63;;;1.80;;
73170;SDS011;61381;50.118;19.962;2022-09-09T11:11:51;1.98;;;1.38;;
73170;SDS011;61381;50.118;19.962;2022-09-09T11:16:55;1.92;;;1.48;;
73170;SDS011;61381;50.118;19.962;2022-09-09T11:22:00;2.28;;;1.80;;
73170;SDS011;61381;50.118;19.962;2022-09-09T11:27:05;1.83;;;1.38;;
73170;SDS011;61381;50.118;19.962;2022-09-09T11:32:14;1.98;;;1.60;;
73170;SDS011;61381;50.118;19.962;2022-09-09T11:37:46;2.35;;;1.58;;
73170;SDS011;61381;50.118;19.962;2022-09-09T11:43:09;2.22;;;1.60;;
73170;SDS011;61381;50.118;19.962;2022-09-09T11:48:21;2.13;;;1.63;;
73170;SDS011;61381;50.118;19.962;2022-09-09T11:53:26;3.63;;;2.08;;
73170;SDS011;61381;50.118;19.962;2022-09-09T11:58:27;3.53;;;1.83;;
73170;SDS011;61381;50.118;19.962;2022-09-09T12:03:34;2.00;;;1.65;;
73170;SDS011;61381;50.118;19.962;2022-09-09T12:08:42;3.45;;;1.60;;
73170;SDS011;61381;50.118;19.962;2022-09-09T12:13:51;1.40;;;1.30;;
73170;SDS011;61381;50.118;19.962;2022-09-09T12:19:02;2.63;;;2.20;;
73170;SDS011;61381;50.118;19.962;2022-09-09T12:24:06;1.42;;;1.33;;
73170;SDS011;61381;50.118;19.962;2022-09-09T12:29:14;1.80;;;1.45;;
73170;SDS011;61381;50.118;19.962;2022-09-09T12:34:30;1.13;;;1.02;;
73170;SDS011;61381;50.118;19.962;2022-09-09T12:39:40;1.50;;;1.35;;
73170;SDS011;61381;50.118;19.962;2022-09-09T12:44:55;1.38;;;1.10;;
73170;SDS011;61381;50.118;19.962;2022-09-09T12:49:57;2.30;;;1.33;;
73170;SDS011;61381;50.118;19.962;2022-09-09T12:55:00;1.35;;;1.25;;
73170;SDS011;61381;50.118;19.962;2022-09-09T13:00:05;3.50;;;1.63;;
73170;SDS011;61381;50.118;19.962;2022-09-09T13:05:13;1.55;;;1.40;;
73170;SDS011;61381;50.118;19.962;2022-09-09T13:10:21;2.33;;;1.20;;
73170;SDS011;61381;50.118;19.962;2022-09-09T13:15:26;2.40;;;1.35;;
73170;SDS011;61381;50.118;19.962;2022-09-09T13:20:29;2.78;;;1.65;;
73170;SDS011;61381;50.118;19.962;2022-09-09T13:25:32;1.50;;;1.35;;
73170;SDS011;61381;50.118;19.962;2022-09-09T13:30:34;2.10;;;1.40;;
73170;SDS011;61381;50.118;19.962;2022-09-09T13:35:36;1.60;;;1.50;;
73170;SDS011;61381;50.118;19.962;2022-09-09T13:40:56;1.30;;;1.20;;
73170;SDS011;61381;50.118;19.962;2022-09-09T13:45:58;1.95;;;1.30;;
73170;SDS011;61381;50.118;19.962;2022-09-09T13:51:01;2.08;;;1.10;;
73170;SDS011;61381;50.118;19.962;2022-09-09T13:56:05;1.90;;;1.40;;
73170;SDS011;61381;50.118;19.962;2022-09-09T14:01:06;1.63;;;1.52;;
73170;SDS011;61381;50.118;19.962;2022-09-09T14:06:07;1.40;;;1.30;;
73170;SDS011;61381;50.118;19.962;2022-09-09T14:11:09;1.73;;;1.30;;
73170;SDS011;61381;50.118;19.962;2022-09-09T14:16:13;1.83;;;1.58;;
73170;SDS011;61381;50.118;19.962;2022-09-09T14:21:14;4.07;;;1.50;;
73170;SDS011;61381;50.118;19.962;2022-09-09T14:26:16;1.40;;;1.30;;
73170;SDS011;61381;50.118;19.962;2022-09-09T14:31:17;3.05;;;1.50;;
73170;SDS011;61381;50.118;19.962;2022-09-09T14:36:18;1.85;;;1.35;;
73170;SDS011;61381;50.118;19.962;2022-09-09T14:41:21;1.67;;;1.58;;
73170;SDS011;61381;50.118;19.962;2022-09-09T14:46:21;2.08;;;1.50;;
73170;SDS011;61381;50.118;19.962;2022-09-09T14:51:23;2.58;;;1.60;;
73170;SDS011;61381;50.118;19.962;2022-09-09T14:56:27;2.30;;;1.45;;
73170;SDS011;61381;50.118;19.962;2022-09-09T15:01:30;2.08;;;1.45;;
73170;SDS011;61381;50.118;19.962;2022-09-09T15:06:32;2.97;;;1.63;;
73170;SDS011;61381;50.118;19.962;2022-09-09T15:11:36;2.28;;;1.83;;
73170;SDS011;61381;50.118;19.962;2022-09-09T15:16:38;2.38;;;1.83;;
73170;SDS011;61381;50.118;19.962;2022-09-09T15:21:39;2.67;;;1.85;;
73170;SDS011;61381;50.118;19.962;2022-09-09T15:26:41;2.40;;;2.20;;
73170;SDS011;61381;50.118;19.962;2022-09-09T15:31:42;2.50;;;2.15;;
73170;SDS011;61381;50.118;19.962;2022-09-09T15:36:43;4.15;;;2.47;;
73170;SDS011;61381;50.118;19.962;2022-09-09T15:41:46;3.22;;;2.17;;
73170;SDS011;61381;50.118;19.962;2022-09-09T15:46:50;3.75;;;3.40;;
73170;SDS011;61381;50.118;19.962;2022-09-09T15:51:54;3.05;;;1.98;;
73170;SDS011;61381;50.118;19.962;2022-09-09T15:56:59;3.33;;;2.38;;
73170;SDS011;61381;50.118;19.962;2022-09-09T16:02:00;3.08;;;2.33;;
73170;SDS011;61381;50.118;19.962;2022-09-09T16:07:02;4.88;;;2.70;;
73170;SDS011;61381;50.118;19.962;2022-09-09T16:12:06;5.68;;;2.70;;
73170;SDS011;61381;50.118;19.962;2022-09-09T16:17:07;3.00;;;2.10;;
73170;SDS011;61381;50.118;19.962;2022-09-09T16:22:08;8.38;;;2.50;;
73170;SDS011;61381;50.118;19.962;2022-09-09T16:27:11;5.10;;;3.03;;
73170;SDS011;61381;50.118;19.962;2022-09-09T16:32:12;6.47;;;3.28;;
73170;SDS011;61381;50.118;19.962;2022-09-09T16:37:13;3.53;;;2.50;;
73170;SDS011;61381;50.118;19.962;2022-09-09T16:42:15;4.85;;;3.55;;
73170;SDS011;61381;50.118;19.962;2022-09-09T16:47:16;4.35;;;3.42;;
73170;SDS011;61381;50.118;19.962;2022-09-09T16:52:17;6.30;;;4.05;;
73170;SDS011;61381;50.118;19.962;2022-09-09T16:57:19;9.88;;;5.43;;
73170;SDS011;61381;50.118;19.962;2022-09-09T17:02:20;10.20;;;4.88;;
73170;SDS011;61381;50.118;19.962;2022-09-09T17:07:21;13.57;;;5.90;;
73170;SDS011;61381;50.118;19.962;2022-09-09T17:12:26;10.48;;;5.82;;
73170;SDS011;61381;50.118;19.962;2022-09-09T17:17:26;4.85;;;3.50;;
73170;SDS011;61381;50.118;19.962;2022-09-09T17:22:27;6.00;;;3.88;;
73170;SDS011;61381;50.118;19.962;2022-09-09T17:27:30;6.38;;;4.20;;
73170;SDS011;61381;50.118;19.962;2022-09-09T17:32:30;6.65;;;4.22;;
73170;SDS011;61381;50.118;19.962;2022-09-09T17:37:31;6.65;;;3.65;;
73170;SDS011;61381;50.118;19.962;2022-09-09T17:42:33;7.75;;;5.70;;
73170;SDS011;61381;50.118;19.962;2022-09-09T17:47:34;8.52;;;4.95;;
73170;SDS011;61381;50.118;19.962;2022-09-09T17:52:35;7.53;;;4.88;;
73170;SDS011;61381;50.118;19.962;2022-09-09T17:57:37;9.23;;;5.20;;
73170;SDS011;61381;50.118;19.962;2022-09-09T18:02:38;7.88;;;4.68;;
73170;SDS011;61381;50.118;19.962;2022-09-09T18:07:39;7.25;;;4.07;;
73170;SDS011;61381;50.118;19.962;2022-09-09T18:12:41;7.65;;;3.72;;
73170;SDS011;61381;50.118;19.962;2022-09-09T18:17:42;7.40;;;4.22;;
73170;SDS011;61381;50.118;19.962;2022-09-09T18:22:43;9.10;;;4.55;;
73170;SDS011;61381;50.118;19.962;2022-09-09T18:27:46;9.07;;;5.05;;
73170;SDS011;61381;50.118;19.962;2022-09-09T18:32:47;7.47;;;4.80;;
73170;SDS011;61381;50.118;19.962;2022-09-09T18:37:49;9.02;;;4.55;;
73170;SDS011;61381;50.118;19.962;2022-09-09T18:42:51;6.25;;;4.13;;
73170;SDS011;61381;50.118;19.962;2022-09-09T18:47:52;9.18;;;5.13;;
73170;SDS011;61381;50.118;19.962;2022-09-09T18:52:53;6.45;;;4.82;;
73170;SDS011;61381;50.118;19.962;2022-09-09T18:57:55;8.82;;;4.88;;
73170;SDS011;61381;50.118;19.962;2022-09-09T19:02:56;9.00;;;4.90;;
73170;SDS011;61381;50.118;19.962;2022-09-09T19:07:57;7.05;;;4.32;;
73170;SDS011;61381;50.118;19.962;2022-09-09T19:12:59;6.65;;;3.88;;
73170;SDS011;61381;50.118;19.962;2022-09-09T19:18:00;6.68;;;4.03;;
73170;SDS011;61381;50.118;19.962;2022-09-09T19:23:00;8.35;;;4.45;;
73170;SDS011;61381;50.118;19.962;2022-09-09T19:28:03;7.13;;;4.78;;
73170;SDS011;61381;50.118;19.962;2022-09-09T19:33:04;7.63;;;4.00;;
73170;SDS011;61381;50.118;19.962;2022-09-09T19:38:05;6.47;;;4.43;;
73170;SDS011;61381;50.118;19.962;2022-09-09T19:43:07;7.82;;;5.38;;
73170;SDS011;61381;50.118;19.962;2022-09-09T19:48:08;9.18;;;5.00;;
73170;SDS011;61381;50.118;19.962;2022-09-09T19:53:09;9.98;;;4.85;;
73170;SDS011;61381;50.118;19.962;2022-09-09T19:58:11;8.23;;;5.90;;
73170;SDS011;61381;50.118;19.962;2022-09-09T20:03:12;11.25;;;6.43;;
73170;SDS011;61381;50.118;19.962;2022-09-09T20:08:13;12.02;;;6.65;;
73170;SDS011;61381;50.118;19.962;2022-09-09T20:13:15;10.68;;;6.18;;
73170;SDS011;61381;50.118;19.962;2022-09-09T20:18:16;12.23;;;6.88;;
73170;SDS011;61381;50.118;19.962;2022-09-09T20:23:17;15.73;;;8.48;;
73170;SDS011;61381;50.118;19.962;2022-09-09T20:28:19;14.02;;;8.35;;
73170;SDS011;61381;50.118;19.962;2022-09-09T20:33:21;13.10;;;8.90;;
73170;SDS011;61381;50.118;19.962;2022-09-09T20:38:21;16.10;;;9.30;;
73170;SDS011;61381;50.118;19.962;2022-09-09T20:43:24;14.85;;;9.68;;
73170;SDS011;61381;50.118;19.962;2022-09-09T20:48:25;15.18;;;9.05;;
73170;SDS011;61381;50.118;19.962;2022-09-09T20:53:25;17.00;;;9.77;;
73170;SDS011;61381;50.118;19.962;2022-09-09T20:58:28;18.02;;;9.80;;
73170;SDS011;61381;50.118;19.962;2022-09-09T21:03:30;16.70;;;10.20;;
73170;SDS011;61381;50.118;19.962;2022-09-09T21:08:33;18.77;;;10.80;;
73170;SDS011;61381;50.118;19.962;2022-09-09T21:13:36;19.63;;;11.20;;
73170;SDS011;61381;50.118;19.962;2022-09-09T21:18:38;22.30;;;12.55;;
73170;SDS011;61381;50.118;19.962;2022-09-09T21:23:40;21.25;;;12.95;;
73170;SDS011;61381;50.118;19.962;2022-09-09T21:28:42;22.63;;;14.60;;
73170;SDS011;61381;50.118;19.962;2022-09-09T21:33:43;22.90;;;11.95;;
73170;SDS011;61381;50.118;19.962;2022-09-09T21:38:45;22.52;;;13.43;;
73170;SDS011;61381;50.118;19.962;2022-09-09T21:43:50;22.75;;;13.23;;
73170;SDS011;61381;50.118;19.962;2022-09-09T21:48:52;24.45;;;13.20;;
73170;SDS011;61381;50.118;19.962;2022-09-09T21:53:53;25.35;;;13.82;;
73170;SDS011;61381;50.118;19.962;2022-09-09T21:58:57;23.17;;;13.30;;
73170;SDS011;61381;50.118;19.962;2022-09-09T22:03:59;23.75;;;13.73;;
73170;SDS011;61381;50.118;19.962;2022-09-09T22:08:59;27.60;;;14.43;;
73170;SDS011;61381;50.118;19.962;2022-09-09T22:14:02;29.13;;;15.07;;
73170;SDS011;61381;50.118;19.962;2022-09-09T22:19:02;25.40;;;14.43;;
73170;SDS011;61381;50.118;19.962;2022-09-09T22:24:04;30.27;;;14.65;;
73170;SDS011;61381;50.118;19.962;2022-09-09T22:29:07;31.98;;;14.90;;
73170;SDS011;61381;50.118;19.962;2022-09-09T22:34:08;27.55;;;15.63;;
73170;SDS011;61381;50.118;19.962;2022-09-09T22:39:09;28.20;;;14.90;;
73170;SDS011;61381;50.118;19.962;2022-09-09T22:44:11;30.98;;;16.23;;
73170;SDS011;61381;50.118;19.962;2022-09-09T22:49:12;29.63;;;15.02;;
73170;SDS011;61381;50.118;19.962;2022-09-09T22:54:13;31.88;;;16.60;;
73170;SDS011;61381;50.118;19.962;2022-09-09T22:59:15;31.48;;;17.45;;
73170;SDS011;61381;50.118;19.962;2022-09-09T23:04:17;33.88;;;17.95;;
73170;SDS011;61381;50.118;19.962;2022-09-09T23:09:17;31.35;;;16.40;;
73170;SDS011;61381;50.118;19.962;2022-09-09T23:14:20;39.63;;;18.75;;
73170;SDS011;61381;50.118;19.962;2022-09-09T23:19:20;37.70;;;18.05;;
73170;SDS011;61381;50.118;19.962;2022-09-09T23:24:21;33.25;;;17.30;;
73170;SDS011;61381;50.118;19.962;2022-09-09T23:29:23;38.83;;;19.20;;
73170;SDS011;61381;50.118;19.962;2022-09-09T23:34:24;38.08;;;19.48;;
73170;SDS011;61381;50.118;19.962;2022-09-09T23:39:25;42.03;;;19.27;;
73170;SDS011;61381;50.118;19.962;2022-09-09T23:44:27;38.45;;;18.67;;
73170;SDS011;61381;50.118;19.962;2022-09-09T23:49:28;40.30;;;19.13;;
73170;SDS011;61381;50.118;19.962;2022-09-09T23:54:29;43.72;;;20.58;;
73170;SDS011;61381;50.118;19.962;2022-09-09T23:59:31;37.83;;;18.85;;
